Strona główna
METAR-TAF:

METAR-TAF

Lotnisko :

Port lotniczy Kassel-Calden

Kassel, Niemcy

Szerokość geograficzna: 51-24N, Długość geograficzna: 009-23E, wysokość: 277 m

Aktualna obserwacja pogody

Raport powstał 32 minut temu, godzina 11:20 UTC
Wiatr 5 kt od południowy wschód
Temperatura 8°C
Wilgotność 93%
Ciśnienie 1007 hPa
Widzialność 10 km lub więcej
Przerywane chmury na wysokości 1200 ft
Zachmurzenie całkowite na wysokości 3000 ft
słaby mżawka

METAR: EDVK 161120Z 13005KT 9999 -DZ BKN012 OVC030 08/07 Q1007

czas: 12:52 (11:52 UTC)

Prognoza

Raport powstał 52 minut temu, godzina 11:00 UTC
Prognoza ważna od 16 godzina 12 UTC do 16 godzina 21 UTC
Wiatr 5 kt od południowo-południowy wschód
Widzialność 10 km lub więcej
Przerywane chmury na wysokości 1200 ft
Stopniowe zmiany
od 16 godzina 12 UTC do 16 godzina 14 UTC
Rozproszone chmury na wysokości 2000 ft

TAF: EDVK 161100Z 1612/1621 16005KT 9999 BKN012 BECMG 1612/1614 SCT020

Obserwacja i prognoza pogody dla ponad 4000 lotnisk (raport METAR i TAF).

Dostępne stacje oznaczono żółtymi i czerwonymi punktami na mapie.

Najedź kursorem aby zobaczyć nazwę stacji.

Kliknij aby zobaczyć obserwacje i prognozy pogody.

Aby zmienić mapę: kliknij na zielony przycisk z czarnym krzyżykiem, aby powiększyć; na zielony przycisk z myślnikiem, aby pomniejszyć; na zielone strzałki, aby przejść do map sąsiednich.


METAR-TAF: